Belocean — 9V8782 — position and weather

sailwx.info

Track history (hours):
 
Tides and Currents Weather Stations Pressure Air Temp Water Temp Dewpoint Dewpoint Depression Visibility Wind Speed Wind Dir Waves Ship Positions

Belocean

Last reported at 2016-Jun-22 09:21 UTC. Time now 2016-Jul-27 01:17 UTC.
Position N 27°14' W 014°20'.
Warning: this ship's position is 34 days out of date.

Length 190 m; draft 12.2 m.

Type: Ship. MMSI: 563582000.

Date/timePositionNaut miles runAvg speedWind from/ knotsBaromVisibWave heightAir tempDewpointWater temp
2016-Jun-22 09:21N 27°14' W 014°20'1012.0
2016-Jun-22 08:33N 27°22' W 014°13'1211.9
2016-Jun-22 07:33N 27°30' W 014°04'1412.5
2016-Jun-22 06:24N 27°41' W 013°54'1112.7
2016-Jun-22 05:33N 27°49' W 013°46'1312.1
2016-Jun-22 04:31N 27°59' W 013°36'1212.0
2016-Jun-22 03:30N 28°08' W 013°27'1211.8
2016-Jun-22 02:31N 28°18' W 013°21'1411.8
2016-Jun-22 01:19N 28°30' W 013°13'1411.8
2016-Jun-22 00:08N 28°43' W 013°05'2012.0
2016-Jun-21 22:28N 29°00' W 012°54'1112.1
2016-Jun-21 21:32N 29°10' W 012°47'1212.1
2016-Jun-21 20:33N 29°20' W 012°41'2512.1
2016-Jun-21 18:31N 29°42' W 012°27'1111.9
2016-Jun-21 17:33N 29°52' W 012°21'1211.5
2016-Jun-21 16:32N 30°02' W 012°14'1311.4
2016-Jun-21 15:26N 30°13' W 012°07'2611.6
2016-Jun-21 13:10N 30°36' W 011°52'811.4
2016-Jun-21 12:28N 30°43' W 011°48'1011.1
2016-Jun-21 11:33N 30°52' W 011°42'1311.4
2016-Jun-21 10:27N 31°03' W 011°35'2211.4
2016-Jun-21 08:32N 31°22' W 011°23'1111.3
2016-Jun-21 07:33N 31°32' W 011°17'3411.3
2016-Jun-21 04:32N 32°02' W 010°58'1111.2
2016-Jun-21 03:33N 32°11' W 010°51'1211.3
2016-Jun-21 02:32N 32°21' W 010°44'1111.4
2016-Jun-21 01:33N 32°31' W 010°37'1511.3
2016-Jun-21 00:12N 32°43' W 010°27'4311.9
2016-Jun-20 20:33N 33°13' W 009°50'1212.0
2016-Jun-20 19:32N 33°22' W 009°39'1211.9
2016-Jun-20 18:33N 33°30' W 009°29'1212.1
2016-Jun-20 17:33N 33°38' W 009°19'1212.2
2016-Jun-20 16:33N 33°47' W 009°08'1211.9
2016-Jun-20 15:33N 33°55' W 008°58'2411.8
2016-Jun-20 13:32N 34°11' W 008°37'1711.5
2016-Jun-20 12:05N 34°23' W 008°23'611.3
2016-Jun-20 11:30N 34°28' W 008°17'1111.5
2016-Jun-20 10:33N 34°35' W 008°08'1211.4
2016-Jun-20 09:32N 34°44' W 007°57'1111.3
2016-Jun-20 08:33N 34°51' W 007°48'1111.4
2016-Jun-20 07:33N 34°59' W 007°38'1212.0
2016-Jun-20 06:33N 35°08' W 007°27'1211.6
2016-Jun-20 05:33N 35°16' W 007°17'1211.7
2016-Jun-20 04:33N 35°24' W 007°07'8111.6
2016-Jun-19 21:33N 35°58' W 005°36'10 9.6
2016-Jun-19 20:33N 36°01' W 005°24'6 6.0
2016-Jun-19 19:32N 36°07' W 005°22'0 0.0
2016-Jun-19 18:32N 36°07' W 005°22'0 0.1
2016-Jun-19 17:23N 36°07' W 005°22'0 0.1
2016-Jun-19 16:32N 36°07' W 005°21'0 0.1
2016-Jun-19 15:29N 36°07' W 005°21'0 0.3
2016-Jun-19 14:32N 36°07' W 005°22'4 4.2
2016-Jun-19 13:34N 36°06' W 005°17'  
2016-Jun-15 10:20N 36°28' W 000°15'911.3
2016-Jun-15 09:33N 36°30' W 000°04'2511.6
2016-Jun-15 07:25N 36°35' E 000°26'1411.7
2016-Jun-15 06:13N 36°38' E 000°43'911.2
2016-Jun-15 05:26N 36°41' E 000°53'1011.1
2016-Jun-15 04:32N 36°43' E 001°06'1311.3
2016-Jun-15 03:25N 36°46' E 001°21'1011.7
2016-Jun-15 02:32N 36°48' E 001°33'1111.8
2016-Jun-15 01:33N 36°50' E 001°47'1211.6
2016-Jun-15 00:33N 36°53' E 002°02'1211.7
2016-Jun-14 23:33N 36°55' E 002°16'1212.4
2016-Jun-14 22:33N 36°58' E 002°31'1313.0
2016-Jun-14 21:33N 37°02' E 002°47'1313.1
2016-Jun-14 20:33N 37°04' E 003°03'1312.9
2016-Jun-14 19:33N 37°07' E 003°19'99 4.1
2016-Jun-13 19:22N 36°54' E 005°22'1 0.3
2016-Jun-13 15:14N 36°54' E 005°20'1 0.2
2016-Jun-13 08:13N 36°55' E 005°19'  
Track history (hours):
 
Tides and Currents Weather Stations Pressure Air Temp Water Temp Dewpoint Dewpoint Depression Visibility Wind Speed Wind Dir Waves Ship Positions

Belocean

Last reported at 2016-Jun-22 09:21 UTC. Time now 2016-Jul-27 01:17 UTC.
Position N 27°14' W 014°20'.
Warning: this ship's position is 34 days out of date.

Length 190 m; draft 12.2 m.

Type: Ship. MMSI: 563582000.

Date/timePositionNaut miles runAvg speedWind from/ knotsBaromVisibWave heightAir tempDewpointWater temp
2016-Jun-22 09:21N 27°14' W 014°20'1012.0
2016-Jun-22 08:33N 27°22' W 014°13'1211.9
2016-Jun-22 07:33N 27°30' W 014°04'1412.5
2016-Jun-22 06:24N 27°41' W 013°54'1112.7
2016-Jun-22 05:33N 27°49' W 013°46'1312.1
2016-Jun-22 04:31N 27°59' W 013°36'1212.0
2016-Jun-22 03:30N 28°08' W 013°27'1211.8
2016-Jun-22 02:31N 28°18' W 013°21'1411.8
2016-Jun-22 01:19N 28°30' W 013°13'1411.8
2016-Jun-22 00:08N 28°43' W 013°05'2012.0
2016-Jun-21 22:28N 29°00' W 012°54'1112.1
2016-Jun-21 21:32N 29°10' W 012°47'1212.1
2016-Jun-21 20:33N 29°20' W 012°41'2512.1
2016-Jun-21 18:31N 29°42' W 012°27'1111.9
2016-Jun-21 17:33N 29°52' W 012°21'1211.5
2016-Jun-21 16:32N 30°02' W 012°14'1311.4
2016-Jun-21 15:26N 30°13' W 012°07'2611.6
2016-Jun-21 13:10N 30°36' W 011°52'811.4
2016-Jun-21 12:28N 30°43' W 011°48'1011.1
2016-Jun-21 11:33N 30°52' W 011°42'1311.4
2016-Jun-21 10:27N 31°03' W 011°35'2211.4
2016-Jun-21 08:32N 31°22' W 011°23'1111.3
2016-Jun-21 07:33N 31°32' W 011°17'3411.3
2016-Jun-21 04:32N 32°02' W 010°58'1111.2
2016-Jun-21 03:33N 32°11' W 010°51'1211.3
2016-Jun-21 02:32N 32°21' W 010°44'1111.4
2016-Jun-21 01:33N 32°31' W 010°37'1511.3
2016-Jun-21 00:12N 32°43' W 010°27'4311.9
2016-Jun-20 20:33N 33°13' W 009°50'1212.0
2016-Jun-20 19:32N 33°22' W 009°39'1211.9
2016-Jun-20 18:33N 33°30' W 009°29'1212.1
2016-Jun-20 17:33N 33°38' W 009°19'1212.2
2016-Jun-20 16:33N 33°47' W 009°08'1211.9
2016-Jun-20 15:33N 33°55' W 008°58'2411.8
2016-Jun-20 13:32N 34°11' W 008°37'1711.5
2016-Jun-20 12:05N 34°23' W 008°23'611.3
2016-Jun-20 11:30N 34°28' W 008°17'1111.5
2016-Jun-20 10:33N 34°35' W 008°08'1211.4
2016-Jun-20 09:32N 34°44' W 007°57'1111.3
2016-Jun-20 08:33N 34°51' W 007°48'1111.4
2016-Jun-20 07:33N 34°59' W 007°38'1212.0
2016-Jun-20 06:33N 35°08' W 007°27'1211.6
2016-Jun-20 05:33N 35°16' W 007°17'1211.7
2016-Jun-20 04:33N 35°24' W 007°07'8111.6
2016-Jun-19 21:33N 35°58' W 005°36'10 9.6
2016-Jun-19 20:33N 36°01' W 005°24'6 6.0
2016-Jun-19 19:32N 36°07' W 005°22'0 0.0
2016-Jun-19 18:32N 36°07' W 005°22'0 0.1
2016-Jun-19 17:23N 36°07' W 005°22'0 0.1
2016-Jun-19 16:32N 36°07' W 005°21'0 0.1
2016-Jun-19 15:29N 36°07' W 005°21'0 0.3
2016-Jun-19 14:32N 36°07' W 005°22'4 4.2
2016-Jun-19 13:34N 36°06' W 005°17'  
2016-Jun-15 10:20N 36°28' W 000°15'911.3
2016-Jun-15 09:33N 36°30' W 000°04'2511.6
2016-Jun-15 07:25N 36°35' E 000°26'1411.7
2016-Jun-15 06:13N 36°38' E 000°43'911.2
2016-Jun-15 05:26N 36°41' E 000°53'1011.1
2016-Jun-15 04:32N 36°43' E 001°06'1311.3
2016-Jun-15 03:25N 36°46' E 001°21'1011.7
2016-Jun-15 02:32N 36°48' E 001°33'1111.8
2016-Jun-15 01:33N 36°50' E 001°47'1211.6
2016-Jun-15 00:33N 36°53' E 002°02'1211.7
2016-Jun-14 23:33N 36°55' E 002°16'1212.4
2016-Jun-14 22:33N 36°58' E 002°31'1313.0
2016-Jun-14 21:33N 37°02' E 002°47'1313.1
2016-Jun-14 20:33N 37°04' E 003°03'1312.9
2016-Jun-14 19:33N 37°07' E 003°19'99 4.1
2016-Jun-13 19:22N 36°54' E 005°22'1 0.3
2016-Jun-13 15:14N 36°54' E 005°20'1 0.2
2016-Jun-13 08:13N 36°55' E 005°19'  

Dump ship's entire track history